Birobidzhan, Russia
Current Conditions -  °F | °C
As of 4:30 AM on Saturday 01 Nov 2014 (Local Time) from UHHH Reporting Station
Clear Clear  
Wind Chill: 23°   Ceiling: Unl
Heat Index: 23°   Visibility: 6mi
Dew Point: 21°   Wind: 0mph
Humidity: 93%   Direction: NA
Pressure: 30.06"   Gusts: NA
Location:  48.8°N, 132.95°E
Report Text: UHHH 312030Z 00000MPS CAVOK M05/M06 Q1018 NOSIG RMK QFE757/100923090060
Loading
Personal Weather Stations






























Interactive Weather Map
Tropical Storm Tracking
New forecast layout! Learn more

10-Day Weather Forecast

Advertisements
Track Severe Weather on mobile